Time;durP1;ratioP1;P1;durP2;ratioP2;P2;SDS_P1;SDS_P2;PMS_P1;PMS_P2;Temp;Humidity;BMP_temperature;BMP_pressure;BME280_temperature;BME280_humidity;BME280_pressure;Samples;Min_cycle;Max_cycle;Signal;HPM_P1;HPM_P2
2022/02/26 00:02:07;;;;;;;21.70;6.53;;;;;;;4.74;89.93;103122.63;5013424;28;20124;-44
2022/02/26 00:04:37;;;;;;;24.10;6.68;;;;;;;4.71;89.74;103114.84;5014689;28;20042;-47
2022/02/26 00:07:05;;;;;;;20.13;6.07;;;;;;;4.67;89.78;103121.63;5023597;28;20038;-45
2022/02/26 00:09:32;;;;;;;20.92;6.28;;;;;;;4.65;90.10;103119.09;5033641;28;20045;-46
2022/02/26 00:12:00;;;;;;;23.70;6.13;;;;;;;4.64;89.92;103125.50;5028506;28;20416;-44
2022/02/26 00:14:29;;;;;;;17.25;6.13;;;;;;;4.62;89.99;103114.03;5012354;28;20042;-48
2022/02/26 00:16:57;;;;;;;20.67;6.70;;;;;;;4.62;90.31;103124.00;5018073;28;20445;-42
2022/02/26 00:19:25;;;;;;;21.17;6.80;;;;;;;4.63;90.71;103126.50;5029328;28;20041;-46
2022/02/26 00:21:54;;;;;;;19.10;6.55;;;;;;;4.64;90.08;103130.91;5013529;28;20060;-44
2022/02/26 00:24:22;;;;;;;23.55;6.55;;;;;;;4.64;90.02;103138.16;5013125;28;20045;-46
2022/02/26 00:26:50;;;;;;;23.40;6.20;;;;;;;4.62;90.42;103137.50;5024379;28;20519;-45
2022/02/26 00:29:19;;;;;;;22.10;7.05;;;;;;;4.59;90.01;103135.97;5033006;28;20054;-44
2022/02/26 00:31:47;;;;;;;27.50;9.77;;;;;;;4.59;90.41;103127.84;5031491;28;20069;-43
2022/02/26 00:34:14;;;;;;;34.78;11.10;;;;;;;4.57;90.59;103138.00;5032984;28;20052;-47
2022/02/26 00:36:44;;;;;;;31.00;11.35;;;;;;;4.57;90.30;103139.84;5026142;28;20048;-45
2022/02/26 00:39:11;;;;;;;32.20;10.15;;;;;;;4.54;90.47;103141.03;5011949;28;20038;-45
2022/02/26 00:41:39;;;;;;;27.38;9.85;;;;;;;4.52;90.77;103143.06;5011762;28;20121;-44
2022/02/26 00:44:07;;;;;;;27.30;9.68;;;;;;;4.52;91.06;103137.66;5014336;28;20050;-44
2022/02/26 00:46:34;;;;;;;22.17;8.68;;;;;;;4.54;90.74;103141.03;5013236;28;20163;-45
2022/02/26 00:51:50;;;;;;;25.55;7.75;;;;;;;4.56;90.72;103141.72;5013459;28;20121;-45
2022/02/26 00:54:17;;;;;;;23.05;6.72;;;;;;;4.56;90.86;103144.41;5016649;28;20038;-46
2022/02/26 00:56:45;;;;;;;23.90;8.00;;;;;;;4.57;89.99;103156.91;5031478;28;20033;-46
2022/02/26 00:59:13;;;;;;;20.95;7.75;;;;;;;4.56;89.28;103160.59;5031875;28;20467;-45
2022/02/26 01:01:41;;;;;;;22.48;7.57;;;;;;;4.54;89.87;103169.88;5032723;28;20128;-46
2022/02/26 01:04:10;;;;;;;20.23;7.45;;;;;;;4.55;89.39;103177.00;5031545;28;20041;-45
2022/02/26 01:06:38;;;;;;;24.77;8.15;;;;;;;4.55;89.20;103177.00;5016805;28;20038;-46
2022/02/26 01:09:06;;;;;;;19.20;6.82;;;;;;;4.54;89.39;103181.53;5031376;28;20045;-44
2022/02/26 01:11:33;;;;;;;18.65;6.30;;;;;;;4.54;89.59;103200.41;5032936;28;20048;-45
2022/02/26 01:14:01;;;;;;;23.38;6.78;;;;;;;4.51;89.31;103202.63;5032332;28;20507;-45
2022/02/26 01:16:34;;;;;;;18.70;6.03;;;;;;;4.47;89.46;103202.09;5016772;28;20092;-47
2022/02/26 01:19:02;;;;;;;20.40;5.93;;;;;;;4.45;90.08;103212.25;5014001;28;20050;-45
2022/02/26 01:21:30;;;;;;;21.90;6.60;;;;;;;4.42;89.67;103217.97;5011312;28;20133;-45
2022/02/26 01:23:58;;;;;;;21.10;6.00;;;;;;;4.39;90.29;103211.06;5012340;28;20448;-45
2022/02/26 01:26:26;;;;;;;19.48;6.53;;;;;;;4.39;90.29;103211.06;5012750;28;20060;-43
2022/02/26 01:28:54;;;;;;;24.05;6.63;;;;;;;4.39;90.33;103205.66;5012952;28;20050;-44
2022/02/26 01:31:22;;;;;;;22.95;6.90;;;;;;;4.42;90.79;103207.16;5011298;28;20048;-45
2022/02/26 01:33:50;;;;;;;20.08;6.65;;;;;;;4.43;90.91;103206.19;5030835;28;20041;-43
2022/02/26 01:36:18;;;;;;;20.27;7.00;;;;;;;4.45;90.76;103204.16;5027527;28;20046;-43
2022/02/26 01:38:45;;;;;;;17.08;5.93;;;;;;;4.47;91.06;103199.41;5012637;28;20042;-44
2022/02/26 01:41:13;;;;;;;19.58;6.20;;;;;;;4.48;90.46;103195.72;5011458;28;20523;-46
2022/02/26 01:43:41;;;;;;;21.77;6.57;;;;;;;4.49;90.46;103197.38;5013287;28;20141;-47
2022/02/26 01:46:10;;;;;;;19.25;6.10;;;;;;;4.47;88.99;103208.38;5023467;28;20137;-46
2022/02/26 01:48:38;;;;;;;20.95;6.50;;;;;;;4.44;89.01;103207.84;5030932;28;20044;-45
2022/02/26 01:51:08;;;;;;;19.60;6.55;;;;;;;4.42;88.83;103199.06;5031971;28;20056;-47
2022/02/26 01:53:37;;;;;;;15.30;5.82;;;;;;;4.40;88.84;103198.41;5031924;28;20052;-47
2022/02/26 01:56:07;;;;;;;17.65;6.30;;;;;;;4.39;88.89;103204.81;5028567;28;20045;-45
2022/02/26 01:58:36;;;;;;;22.60;6.38;;;;;;;4.36;89.02;103206.00;5032018;28;20033;-44
2022/02/26 02:01:04;;;;;;;19.52;6.03;;;;;;;4.36;88.94;103206.00;5030789;28;20046;-45
2022/02/26 02:03:33;;;;;;;24.40;6.93;;;;;;;4.33;89.10;103208.19;5029459;28;20046;-45
2022/02/26 02:06:01;;;;;;;17.42;6.30;;;;;;;4.30;89.42;103205.81;5013493;28;20085;-45
2022/02/26 02:08:29;;;;;;;17.58;5.35;;;;;;;4.30;89.60;103205.81;5032117;28;20073;-47
2022/02/26 02:10:56;;;;;;;23.13;6.90;;;;;;;4.30;90.00;103198.56;5030313;28;20133;-44
2022/02/26 02:13:25;;;;;;;16.73;5.38;;;;;;;4.28;90.00;103208.66;5030808;28;20503;-46
2022/02/26 02:15:56;;;;;;;14.95;5.50;;;;;;;4.26;89.59;103206.16;5031029;28;20045;-43
2022/02/26 02:18:24;;;;;;;20.58;5.95;;;;;;;4.26;89.82;103200.75;5026781;28;20491;-45
2022/02/26 02:20:52;;;;;;;18.00;5.85;;;;;;;4.29;89.75;103204.16;5012125;28;20042;-45
2022/02/26 02:23:20;;;;;;;21.80;6.75;;;;;;;4.30;89.13;103195.03;5024921;28;20136;-44
2022/02/26 02:25:48;;;;;;;26.05;6.13;;;;;;;4.27;88.73;103204.31;5031202;28;20444;-43
2022/02/26 02:28:17;;;;;;;20.00;6.85;;;;;;;4.21;88.59;103200.44;5034482;28;20396;-44
2022/02/26 02:30:44;;;;;;;20.30;6.80;;;;;;;4.18;88.44;103203.44;5035224;28;20122;-44
2022/02/26 02:33:12;;;;;;;17.30;6.32;;;;;;;4.18;89.06;103206.13;5035402;28;20040;-46
2022/02/26 02:35:42;;;;;;;18.67;6.10;;;;;;;4.20;88.76;103200.59;5033334;28;20041;-45
2022/02/26 02:38:15;;;;;;;17.15;5.90;;;;;;;4.21;89.08;103196.84;5031375;28;20069;-42
2022/02/26 02:40:45;;;;;;;17.70;6.60;;;;;;;4.21;89.36;103197.72;5035193;28;20053;-44
2022/02/26 02:43:13;;;;;;;20.50;6.35;;;;;;;4.18;88.26;103208.84;5033874;28;20533;-45
2022/02/26 02:45:41;;;;;;;17.90;6.55;;;;;;;4.13;87.97;103211.19;5030836;28;20040;-45
2022/02/26 02:48:09;;;;;;;15.77;5.45;;;;;;;4.12;88.27;103220.31;5026272;28;20448;-45
2022/02/26 02:50:37;;;;;;;17.48;5.60;;;;;;;4.13;89.01;103215.75;5015588;28;20435;-45
2022/02/26 02:53:05;;;;;;;17.77;5.85;;;;;;;4.13;89.00;103205.78;5013711;28;20045;-43
2022/02/26 02:55:33;;;;;;;15.65;5.72;;;;;;;4.12;88.44;103212.22;5015168;28;20482;-48
2022/02/26 02:58:01;;;;;;;22.77;7.10;;;;;;;4.13;89.13;103215.75;5031440;28;20055;-44
2022/02/26 03:00:30;;;;;;;17.73;6.13;;;;;;;4.14;88.68;103212.06;5015078;28;20378;-47
2022/02/26 03:02:58;;;;;;;14.90;5.53;;;;;;;4.15;88.50;103202.94;5015005;28;20049;-43
2022/02/26 03:05:26;;;;;;;21.08;6.22;;;;;;;4.12;88.17;103205.97;5024024;28;20115;-45
2022/02/26 03:07:54;;;;;;;15.65;6.15;;;;;;;4.07;88.35;103201.09;5034788;28;20068;-45
2022/02/26 03:10:22;;;;;;;18.85;6.00;;;;;;;4.06;88.17;103204.78;5033141;28;20150;-45
2022/02/26 03:12:51;;;;;;;17.88;6.20;;;;;;;4.05;87.99;103203.09;5034619;28;20041;-42
2022/02/26 03:15:22;;;;;;;18.98;6.10;;;;;;;4.02;88.23;103198.88;5033163;28;20038;-45
2022/02/26 03:17:50;;;;;;;14.95;5.47;;;;;;;4.02;88.47;103204.28;5033743;28;20040;-46
2022/02/26 03:20:19;;;;;;;18.63;5.93;;;;;;;4.01;88.60;103207.13;5034603;28;20052;-47
2022/02/26 03:22:47;;;;;;;17.33;5.38;;;;;;;3.99;88.10;103201.03;5026302;28;20073;-43
2022/02/26 03:25:16;;;;;;;22.48;6.60;;;;;;;3.99;88.32;103203.75;5024687;28;20053;-42
2022/02/26 03:27:44;;;;;;;15.73;6.00;;;;;;;3.99;88.76;103198.34;5033929;28;20063;-40
2022/02/26 03:30:12;;;;;;;14.55;5.60;;;;;;;4.00;88.52;103213.53;5014893;28;20132;-42
2022/02/26 03:32:40;;;;;;;15.85;5.50;;;;;;;3.99;88.52;103214.53;5013149;28;20046;-43
2022/02/26 03:35:09;;;;;;;12.32;5.10;;;;;;;3.97;88.66;103225.50;5013977;28;20048;-42
2022/02/26 03:37:37;;;;;;;18.20;5.88;;;;;;;3.97;88.56;103228.19;5015964;28;20204;-42
2022/02/26 03:40:06;;;;;;;15.18;5.78;;;;;;;3.94;88.17;103239.28;5034207;28;20043;-43
2022/02/26 03:42:33;;;;;;;16.85;6.00;;;;;;;3.90;88.06;103245.22;5032747;28;20408;-42
2022/02/26 03:45:02;;;;;;;18.15;6.07;;;;;;;3.83;88.10;103253.94;5032009;28;20049;-42
2022/02/26 03:47:30;;;;;;;20.13;7.00;;;;;;;3.79;87.81;103257.97;5014140;28;20484;-41
2022/02/26 03:49:58;;;;;;;18.48;6.22;;;;;;;3.77;88.30;103249.19;5015515;28;20050;-42
2022/02/26 03:52:30;;;;;;;23.17;6.60;;;;;;;3.78;88.40;103260.84;5014094;28;20046;-45
2022/02/26 03:54:57;;;;;;;20.88;6.72;;;;;;;3.75;88.27;103272.81;5013914;28;20046;-44
2022/02/26 03:57:25;;;;;;;19.27;6.18;;;;;;;3.71;88.31;103268.72;5026835;28;20412;-43
2022/02/26 03:59:53;;;;;;;19.52;6.57;;;;;;;3.68;88.24;103266.38;5018809;28;20120;-43
2022/02/26 04:02:20;;;;;;;16.73;6.13;;;;;;;3.68;88.64;103278.97;5033344;28;20380;-47
2022/02/26 04:04:48;;;;;;;16.38;6.10;;;;;;;3.67;88.17;103285.38;5033710;28;20136;-43
2022/02/26 04:07:16;;;;;;;17.50;5.72;;;;;;;3.66;88.35;103281.84;5032068;28;20053;-45
2022/02/26 04:09:44;;;;;;;18.13;6.13;;;;;;;3.66;88.84;103284.53;5020301;28;20407;-45
2022/02/26 04:12:11;;;;;;;19.70;6.40;;;;;;;3.65;88.58;103285.53;5033805;28;20034;-47
2022/02/26 04:14:39;;;;;;;19.35;6.78;;;;;;;3.63;88.82;103293.81;5033864;28;20464;-45
2022/02/26 04:17:07;;;;;;;19.63;6.13;;;;;;;3.62;88.33;103299.34;5031093;28;20044;-45
2022/02/26 04:19:35;;;;;;;17.75;6.35;;;;;;;3.60;88.20;103295.97;5032928;28;20121;-44
2022/02/26 04:22:03;;;;;;;21.45;6.40;;;;;;;3.58;88.69;103295.28;5013653;28;20058;-40
2022/02/26 04:24:33;;;;;;;22.33;6.47;;;;;;;3.58;88.63;103304.22;5013338;28;20481;-47
2022/02/26 04:27:02;;;;;;;21.88;6.65;;;;;;;3.60;88.58;103310.28;5013774;28;20042;-46
2022/02/26 04:29:29;;;;;;;19.63;6.38;;;;;;;3.63;88.98;103303.72;5013575;28;20041;-45
2022/02/26 04:31:57;;;;;;;20.17;6.80;;;;;;;3.65;88.86;103308.97;5013599;28;20050;-42
2022/02/26 04:34:25;;;;;;;16.50;6.43;;;;;;;3.67;88.57;103323.97;5014471;28;20041;-45
2022/02/26 04:36:53;;;;;;;19.08;6.35;;;;;;;3.68;89.27;103330.19;5013536;28;20129;-44
2022/02/26 04:39:21;;;;;;;19.02;6.03;;;;;;;3.68;89.72;103314.88;5027135;28;20080;-46
2022/02/26 04:41:48;;;;;;;16.67;6.25;;;;;;;3.72;88.98;103313.53;5032672;28;20053;-44
2022/02/26 04:44:16;;;;;;;16.55;6.07;;;;;;;3.76;88.96;103322.16;5033003;28;20140;-45
2022/02/26 04:46:45;;;;;;;15.48;5.55;;;;;;;3.80;89.34;103313.59;5016297;28;20452;-46
2022/02/26 04:49:13;;;;;;;19.90;6.40;;;;;;;3.81;88.70;103317.13;5013016;28;20108;-45
2022/02/26 04:51:43;;;;;;;19.23;6.53;;;;;;;3.80;88.87;103321.69;5013328;28;20050;-44
2022/02/26 04:54:13;;;;;;;13.95;6.18;;;;;;;3.78;88.55;103318.31;5013119;28;20560;-44
2022/02/26 04:56:40;;;;;;;16.95;5.95;;;;;;;3.74;89.07;103314.22;5014087;28;20038;-46
2022/02/26 04:59:08;;;;;;;16.65;6.30;;;;;;;3.72;88.70;103320.78;5013967;28;20480;-45
2022/02/26 05:01:36;;;;;;;18.17;6.05;;;;;;;3.69;89.12;103321.97;5017402;28;20480;-45
2022/02/26 05:04:04;;;;;;;22.70;6.57;;;;;;;3.67;88.94;103323.97;5015479;28;20092;-47
2022/02/26 05:06:32;;;;;;;15.77;6.43;;;;;;;3.67;89.01;103326.66;5013202;28;20496;-45
2022/02/26 05:09:00;;;;;;;18.70;6.35;;;;;;;3.66;89.56;103322.28;5018728;28;20369;-46
2022/02/26 05:11:28;;;;;;;16.23;5.70;;;;;;;3.66;89.27;103324.16;5030682;28;20518;-45
2022/02/26 05:13:56;;;;;;;19.27;6.32;;;;;;;3.66;89.29;103327.69;5032502;28;20048;-44
2022/02/26 05:16:24;;;;;;;18.90;6.75;;;;;;;3.67;89.46;103325.81;5020500;28;20042;-44
2022/02/26 05:18:51;;;;;;;24.65;6.78;;;;;;;3.67;89.88;103328.53;5012881;28;20045;-46
2022/02/26 05:21:19;;;;;;;17.58;6.03;;;;;;;3.66;88.91;103330.38;5012658;28;20132;-44
2022/02/26 05:23:48;;;;;;;18.02;6.53;;;;;;;3.64;88.96;103329.69;5028590;28;20080;-43
2022/02/26 05:26:16;;;;;;;19.05;6.13;;;;;;;3.62;88.92;103326.31;5028345;28;20389;-45
2022/02/26 05:28:43;;;;;;;20.15;6.40;;;;;;;3.60;89.78;103325.63;5032497;28;20037;-46
2022/02/26 05:31:11;;;;;;;16.33;5.90;;;;;;;3.59;89.34;103332.03;5032617;28;20330;-44
2022/02/26 05:33:39;;;;;;;18.98;6.32;;;;;;;3.59;89.57;103323.94;5032295;28;20087;-46
2022/02/26 05:36:09;;;;;;;18.55;6.55;;;;;;;3.62;89.36;103332.53;5026565;28;20128;-45
2022/02/26 05:38:36;;;;;;;17.55;5.97;;;;;;;3.65;89.36;103319.75;5032345;28;20059;-46
2022/02/26 05:41:07;;;;;;;20.25;6.82;;;;;;;3.66;89.03;103333.06;5031978;28;20065;-45
2022/02/26 05:43:35;;;;;;;17.92;6.80;;;;;;;3.64;88.45;103335.09;5015058;28;20057;-47
2022/02/26 05:46:03;;;;;;;16.70;6.15;;;;;;;3.58;88.16;103338.41;5018858;28;20125;-45
2022/02/26 05:48:31;;;;;;;16.65;6.30;;;;;;;3.52;88.11;103333.66;5015125;28;20555;-45
2022/02/26 05:51:01;;;;;;;15.45;6.30;;;;;;;3.48;88.41;103337.69;5012443;28;20120;-43
2022/02/26 05:53:29;;;;;;;18.52;6.35;;;;;;;3.45;88.33;103335.31;5012224;28;20077;-45
2022/02/26 05:55:57;;;;;;;17.85;6.45;;;;;;;3.42;88.57;103336.47;5012291;28;20088;-45
2022/02/26 05:58:25;;;;;;;17.92;6.43;;;;;;;3.42;88.77;103329.22;5012359;28;20062;-46
2022/02/26 06:00:53;;;;;;;17.60;6.07;;;;;;;3.40;87.86;103339.31;5014518;28;20033;-44
2022/02/26 06:03:21;;;;;;;15.20;6.00;;;;;;;3.34;88.38;103356.13;5016188;28;20117;-44
2022/02/26 06:05:48;;;;;;;19.70;6.88;;;;;;;3.34;88.37;103355.25;5016377;28;20050;-44
2022/02/26 06:08:17;;;;;;;18.67;6.43;;;;;;;3.34;88.13;103356.13;5024588;28;20068;-46
2022/02/26 06:10:45;;;;;;;22.52;6.90;;;;;;;3.29;87.20;103366.50;5014710;28;20518;-46
2022/02/26 06:13:13;;;;;;;17.80;6.45;;;;;;;3.25;87.83;103369.66;5016879;28;20034;-45
2022/02/26 06:15:41;;;;;;;17.02;6.38;;;;;;;3.23;88.01;103364.44;5014574;28;20161;-46
2022/02/26 06:18:08;;;;;;;17.30;6.60;;;;;;;3.22;88.64;103361.91;5026130;28;20045;-43
2022/02/26 06:20:36;;;;;;;21.88;7.25;;;;;;;3.22;88.99;103361.91;5035624;28;20096;-45
2022/02/26 06:23:05;;;;;;;19.48;6.53;;;;;;;3.27;89.15;103370.34;5035421;28;20120;-45
2022/02/26 06:25:32;;;;;;;16.40;6.28;;;;;;;3.28;88.49;103377.47;5025781;28;20046;-46
2022/02/26 06:28:00;;;;;;;16.90;7.10;;;;;;;3.29;87.83;103379.97;5020202;28;20045;-46
2022/02/26 06:30:28;;;;;;;18.83;6.68;;;;;;;3.28;87.53;103377.47;5035675;28;20140;-46
2022/02/26 06:32:56;;;;;;;16.88;6.88;;;;;;;3.24;87.72;103374.22;5035784;28;20084;-45
2022/02/26 06:35:26;;;;;;;22.00;8.05;;;;;;;3.19;87.47;103381.91;5034314;28;20049;-46
2022/02/26 06:37:54;;;;;;;20.25;6.97;;;;;;;3.14;87.60;103376.16;5029201;28;20151;-45
2022/02/26 06:40:22;;;;;;;17.20;7.55;;;;;;;3.10;86.84;103382.84;5034757;28;20052;-44
2022/02/26 06:42:49;;;;;;;16.48;7.85;;;;;;;3.06;87.01;103389.56;5035210;28;20053;-45
2022/02/26 06:45:17;;;;;;;18.88;7.70;;;;;;;3.06;87.86;103392.25;5025100;28;20077;-45
2022/02/26 06:47:45;;;;;;;20.63;8.00;;;;;;;3.10;87.58;103401.69;5015661;28;20045;-50
2022/02/26 06:50:12;;;;;;;22.42;7.68;;;;;;;3.10;87.06;103401.69;5027486;28;20065;-45
2022/02/26 06:52:40;;;;;;;18.50;7.70;;;;;;;3.02;87.47;103399.78;5034959;28;20046;-44
2022/02/26 06:55:13;;;;;;;19.90;7.53;;;;;;;2.93;87.91;103400.69;5032236;28;20041;-47
2022/02/26 06:57:45;;;;;;;21.17;7.43;;;;;;;2.91;87.99;103400.88;5015343;28;20486;-45
2022/02/26 07:00:13;;;;;;;18.25;7.20;;;;;;;2.97;87.55;103412.88;5015073;28;20076;-47
2022/02/26 07:02:42;;;;;;;15.40;6.85;;;;;;;3.05;87.20;103412.09;5015354;28;20049;-48
2022/02/26 07:05:10;;;;;;;19.77;6.95;;;;;;;3.11;87.06;103408.81;5015107;28;20049;-44
2022/02/26 07:07:38;;;;;;;20.90;7.35;;;;;;;3.12;86.77;103415.88;5031390;28;20157;-47
2022/02/26 07:10:06;;;;;;;16.65;7.63;;;;;;;3.12;86.39;103424.78;5027928;28;20038;-46
2022/02/26 07:12:37;;;;;;;15.85;6.80;;;;;;;3.13;86.29;103431.03;5014978;28;20050;-45
2022/02/26 07:15:05;;;;;;;18.48;7.07;;;;;;;3.12;86.00;103430.19;5014780;28;20038;-47
2022/02/26 07:17:33;;;;;;;16.63;6.38;;;;;;;3.11;85.99;103425.81;5019817;28;20133;-46
2022/02/26 07:20:01;;;;;;;20.10;7.25;;;;;;;3.14;86.77;103421.94;5014341;28;20049;-46
2022/02/26 07:22:29;;;;;;;16.73;6.43;;;;;;;3.16;86.90;103428.03;5017438;28;20037;-45
2022/02/26 07:24:56;;;;;;;22.02;7.05;;;;;;;3.16;86.76;103430.72;5014648;28;20050;-46
2022/02/26 07:27:24;;;;;;;15.95;6.30;;;;;;;3.15;87.10;103432.59;5033471;28;20463;-47
2022/02/26 07:29:52;;;;;;;19.42;7.47;;;;;;;3.17;87.25;103432.41;5034455;28;20121;-47
2022/02/26 07:32:19;;;;;;;19.42;6.70;;;;;;;3.17;87.66;103435.94;5034160;28;20051;-47
2022/02/26 07:34:47;;;;;;;17.02;6.47;;;;;;;3.18;87.19;103443.03;5031086;28;20056;-44
2022/02/26 07:37:15;;;;;;;21.00;6.50;;;;;;;3.15;87.80;103431.72;5025514;28;20052;-46
2022/02/26 07:39:44;;;;;;;17.90;7.38;;;;;;;3.11;88.25;103433.03;5014217;28;20046;-49
2022/02/26 07:42:11;;;;;;;20.25;6.90;;;;;;;3.10;89.04;103428.63;4996835;28;20064;-47
2022/02/26 07:44:39;;;;;;;17.38;6.65;;;;;;;3.16;88.78;103444.19;5014188;28;20164;-44
2022/02/26 07:47:07;;;;;;;15.85;6.05;;;;;;;3.20;89.22;103437.50;5012478;28;20048;-45
2022/02/26 07:49:34;;;;;;;18.73;6.38;;;;;;;3.23;89.29;103444.44;5013862;28;20481;-46
2022/02/26 07:52:02;;;;;;;21.90;7.22;;;;;;;3.27;89.24;103448.50;5030158;28;20045;-45
2022/02/26 07:54:30;;;;;;;19.98;7.07;;;;;;;3.30;89.60;103451.75;5020771;28;20519;-44
2022/02/26 07:56:58;;;;;;;18.70;6.60;;;;;;;3.32;90.27;103448.88;4318906;28;10000608;-45
2022/02/26 07:59:25;;;;;;;16.52;6.53;;;;;;;3.34;90.20;103450.44;5011756;28;20522;-45
2022/02/26 08:01:56;;;;;;;19.75;7.10;;;;;;;3.38;90.53;103453.66;5011424;28;20045;-45
2022/02/26 08:04:24;;;;;;;24.17;7.43;;;;;;;3.42;91.19;103466.66;5010807;28;20497;-44
2022/02/26 08:06:51;;;;;;;18.77;7.28;;;;;;;3.47;90.80;103470.75;5010373;28;20488;-48
2022/02/26 08:09:19;;;;;;;21.92;7.07;;;;;;;3.51;90.56;103461.34;5030139;28;20056;-47
2022/02/26 08:11:46;;;;;;;17.95;7.03;;;;;;;3.50;90.67;103456.97;5029327;28;20048;-48
2022/02/26 08:14:14;;;;;;;21.67;7.38;;;;;;;3.52;91.18;103455.81;5028294;28;20045;-46
2022/02/26 08:16:42;;;;;;;20.00;7.13;;;;;;;3.56;91.46;103457.19;5029994;28;20105;-46
2022/02/26 08:19:10;;;;;;;16.02;6.47;;;;;;;3.60;90.92;103469.31;5029915;28;20037;-47
2022/02/26 08:21:37;;;;;;;18.45;7.10;;;;;;;3.62;91.27;103455.72;5019804;28;20050;-44
2022/02/26 08:24:05;;;;;;;16.27;6.63;;;;;;;3.63;91.73;103465.47;5027135;28;20044;-46
2022/02/26 08:26:33;;;;;;;23.95;7.65;;;;;;;3.64;91.88;103464.50;5010303;28;20069;-46
2022/02/26 08:29:01;;;;;;;22.90;7.53;;;;;;;3.64;92.50;103464.50;5028393;28;20703;-46
2022/02/26 08:31:29;;;;;;;16.88;6.40;;;;;;;3.67;93.12;103463.31;5028885;28;20504;-45
2022/02/26 08:34:00;;;;;;;17.50;7.20;;;;;;;3.68;93.12;103465.88;5026998;28;20042;-47
2022/02/26 08:36:27;;;;;;;19.88;7.25;;;;;;;3.70;93.38;103469.22;5029340;28;20492;-47
2022/02/26 08:38:55;;;;;;;20.67;7.18;;;;;;;3.73;92.69;103474.34;5029549;28;20041;-45
2022/02/26 08:41:23;;;;;;;15.98;6.85;;;;;;;3.74;92.92;103476.00;5017473;28;20042;-42
2022/02/26 08:43:50;;;;;;;19.27;7.80;;;;;;;3.74;93.13;103485.97;5009994;28;20057;-43
2022/02/26 08:46:18;;;;;;;19.15;8.00;;;;;;;3.72;93.34;103478.03;5010929;28;20054;-44
2022/02/26 08:48:46;;;;;;;19.90;8.07;;;;;;;3.70;94.04;103479.19;5009573;28;20411;-46
2022/02/26 08:51:13;;;;;;;17.80;8.02;;;;;;;3.70;94.64;103480.03;5024692;28;20045;-43
2022/02/26 08:53:41;;;;;;;19.25;7.82;;;;;;;3.72;95.08;103483.41;5028935;28;20096;-46
2022/02/26 08:56:09;;;;;;;16.98;6.95;;;;;;;3.77;94.38;103469.47;5021909;28;20041;-45
2022/02/26 08:58:38;;;;;;;17.23;7.18;;;;;;;3.81;94.61;103476.25;5020966;28;20061;-45
2022/02/26 09:01:07;;;;;;;15.05;6.88;;;;;;;3.87;94.21;103470.19;5017271;28;20504;-45
2022/02/26 09:03:35;;;;;;;16.83;7.30;;;;;;;3.90;94.12;103475.31;5009630;28;20042;-46
2022/02/26 09:06:03;;;;;;;18.48;8.05;;;;;;;3.95;93.93;103477.53;5024334;28;20526;-45
2022/02/26 09:08:32;;;;;;;15.13;6.68;;;;;;;3.98;94.65;103479.91;5029353;28;20454;-46
2022/02/26 09:10:59;;;;;;;16.65;6.82;;;;;;;4.01;94.65;103476.88;5019098;28;20137;-43
2022/02/26 09:13:27;;;;;;;14.40;6.32;;;;;;;4.05;95.00;103481.78;5009823;28;20049;-44
2022/02/26 09:15:58;;;;;;;15.00;6.88;;;;;;;4.09;94.49;103481.47;5009854;28;20507;-45
2022/02/26 09:18:26;;;;;;;16.27;6.85;;;;;;;4.11;94.46;103472.22;5008359;28;20521;-46
2022/02/26 09:20:54;;;;;;;15.32;6.53;;;;;;;4.13;94.23;103490.94;5020399;28;20048;-48
2022/02/26 09:23:22;;;;;;;18.13;6.85;;;;;;;4.12;94.39;103484.72;5027988;28;20483;-46
2022/02/26 09:25:50;;;;;;;16.65;6.95;;;;;;;4.14;94.58;103487.25;5029070;28;20049;-46
2022/02/26 09:28:17;;;;;;;15.00;6.57;;;;;;;4.18;95.00;103484.06;5029404;28;20049;-45
2022/02/26 09:30:45;;;;;;;13.90;6.18;;;;;;;4.21;95.17;103486.47;5028195;28;20053;-48
2022/02/26 09:33:15;;;;;;;15.35;6.93;;;;;;;4.24;95.09;103474.50;5028905;28;20137;-45
2022/02/26 09:35:43;;;;;;;16.33;6.57;;;;;;;4.25;94.77;103485.13;5024557;28;20116;-47
2022/02/26 09:38:11;;;;;;;20.58;8.00;;;;;;;4.29;94.66;103485.66;5013729;28;20493;-48
2022/02/26 09:40:38;;;;;;;20.08;7.57;;;;;;;4.30;94.68;103486.50;5013006;28;20145;-47
2022/02/26 09:43:06;;;;;;;17.70;7.40;;;;;;;4.31;94.85;103482.81;5013131;28;20049;-48
2022/02/26 09:45:34;;;;;;;19.55;8.10;;;;;;;4.32;95.24;103489.88;5012031;28;20061;-47
2022/02/26 09:48:02;;;;;;;19.42;7.85;;;;;;;4.35;95.51;103484.16;5015007;28;20099;-46
2022/02/26 09:50:30;;;;;;;17.10;6.82;;;;;;;4.39;95.88;103482.84;5032686;28;20061;-46
2022/02/26 09:52:58;;;;;;;18.83;8.57;;;;;;;4.42;95.58;103491.44;5032803;28;20132;-46
2022/02/26 09:55:25;;;;;;;20.88;7.40;;;;;;;4.45;95.72;103482.22;5032474;28;20038;-46
2022/02/26 09:57:53;;;;;;;19.50;8.13;;;;;;;4.48;95.82;103481.88;5023361;28;20518;-47
2022/02/26 10:00:22;;;;;;;18.83;7.18;;;;;;;4.52;96.01;103479.69;5029409;28;20721;-48
2022/02/26 10:02:50;;;;;;;18.85;7.40;;;;;;;4.55;96.03;103487.47;5020291;28;20060;-47
2022/02/26 10:05:20;;;;;;;19.15;7.43;;;;;;;4.56;96.55;103486.44;5024375;28;20397;-51
2022/02/26 10:07:49;;;;;;;23.15;8.00;;;;;;;4.58;96.55;103484.44;5031700;28;20499;-49
2022/02/26 10:10:25;;;;;;;17.08;6.90;;;;;;;4.59;97.02;103486.97;5031224;28;20045;-46
2022/02/26 10:12:56;;;;;;;19.88;7.53;;;;;;;4.64;97.25;103487.34;5032800;28;20048;-46
2022/02/26 10:15:36;;;;;;;19.02;7.53;;;;;;;4.67;97.48;103489.72;5033204;28;20050;-46
2022/02/26 10:18:13;;;;;;;24.42;7.47;;;;;;;4.71;97.86;103479.41;5035727;28;20042;-47
2022/02/26 10:20:54;;;;;;;18.55;6.68;;;;;;;4.77;97.73;103475.25;5035396;28;20112;-46
2022/02/26 10:23:23;;;;;;;23.10;6.07;;;;;;;4.87;97.37;103478.63;5030710;28;20504;-47
2022/02/26 10:25:50;;;;;;;14.07;5.20;;;;;;;4.90;96.66;103478.31;5015409;28;20144;-47
2022/02/26 10:28:21;;;;;;;17.30;5.47;;;;;;;4.92;96.94;103468.19;5030739;28;20173;-45
2022/02/26 10:30:49;;;;;;;16.40;5.93;;;;;;;4.95;96.96;103467.00;5015610;28;20049;-44
2022/02/26 10:33:23;;;;;;;21.13;6.07;;;;;;;4.98;96.92;103472.94;5015793;28;20130;-45
2022/02/26 10:35:56;;;;;;;19.23;6.60;;;;;;;5.04;96.93;103469.56;5015349;28;20077;-48
2022/02/26 10:38:23;;;;;;;22.15;6.90;;;;;;;5.21;98.18;103465.03;5035526;28;20046;-47
2022/02/26 10:41:00;;;;;;;17.38;5.60;;;;;;;5.23;96.27;103467.56;5035435;28;20384;-46
2022/02/26 10:43:49;;;;;;;21.65;5.72;;;;;;;5.21;95.38;103470.44;5028161;28;20163;-48
2022/02/26 10:46:21;;;;;;;17.48;4.72;;;;;;;5.25;94.83;103470.94;5012934;28;20080;-51
2022/02/26 10:48:57;;;;;;;15.82;4.88;;;;;;;5.31;94.62;103470.28;5018378;28;20046;-44
2022/02/26 10:51:30;;;;;;;21.27;5.45;;;;;;;5.32;93.76;103467.41;5032635;28;20041;-49
2022/02/26 10:53:59;;;;;;;20.40;6.10;;;;;;;5.48;96.60;103466.59;5033459;28;20124;-49
2022/02/26 10:56:37;;;;;;;15.45;4.85;;;;;;;5.52;96.21;103467.91;5032247;28;20128;-47
2022/02/26 10:59:07;;;;;;;19.15;5.07;;;;;;;5.72;98.06;103462.16;5029482;28;20042;-46
2022/02/26 11:01:35;;;;;;;17.45;5.25;;;;;;;5.64;94.38;103463.00;5024599;28;20488;-46
2022/02/26 11:04:04;;;;;;;16.95;4.70;;;;;;;5.58;92.42;103460.13;5033950;28;20041;-48
2022/02/26 11:06:32;;;;;;;17.05;4.70;;;;;;;5.57;91.49;103453.88;5033963;28;20091;-51
2022/02/26 11:09:00;;;;;;;16.00;4.75;;;;;;;5.57;91.06;103447.63;5033065;28;20046;-48
2022/02/26 11:11:28;;;;;;;17.13;5.55;;;;;;;5.57;90.72;103447.63;5027170;28;20125;-48
2022/02/26 11:14:01;;;;;;;16.40;5.35;;;;;;;5.54;90.07;103457.78;5020340;28;20042;-48
2022/02/26 11:16:28;;;;;;;13.75;4.90;;;;;;;5.54;90.16;103448.81;5012245;28;20072;-47
2022/02/26 11:18:59;;;;;;;28.10;7.47;;;;;;;5.76;96.32;103436.47;5012604;28;20042;-47
2022/02/26 11:21:27;;;;;;;17.83;5.45;;;;;;;5.84;93.65;103449.13;5021372;28;20042;-47
2022/02/26 11:23:55;;;;;;;19.98;5.40;;;;;;;5.82;89.45;103456.56;5014009;28;20049;-48
2022/02/26 11:26:25;;;;;;;15.38;4.75;;;;;;;5.73;86.12;103445.75;4996378;28;20391;-47
2022/02/26 11:28:57;;;;;;;16.77;4.82;;;;;;;5.70;85.35;103439.84;5012409;28;20092;-45
2022/02/26 11:31:34;;;;;;;14.73;5.05;;;;;;;5.71;85.37;103446.94;5014625;28;20081;-50
2022/02/26 11:34:02;;;;;;;15.13;5.15;;;;;;;5.74;85.63;103443.91;5012308;28;20046;-50